Etusivu
METAR-TAF:

METAR-TAF

Lentoasemat :

Port Hope, Michigan, Yhdysvallat

Leveyspiiri: 44-01-19N, Pituuspiiri: 082-47-35W, korkeus merenpinnasta: 179 m

Tämänhetkinen sää

Tämä raportti tehtiin 31 minuuttia sitten, kello 02.51 UTC
Tuuli 19 kn lännestä/luoteesta puuskistuen 29 kn:hen
Lämpötila 3°C
Kosteus 70%
Ilmanpaine 1001 hPa

METAR: KP58 100251Z AUTO 30019G29KT 03/M02 A2956 RMK AO1 PK WND 32043/0204 SLP017 T00281022 51019

Aika: 23:22 (03:22 UTC)


TAF: puuttuu

Säähavainnot ja -ennusteet yli 4000 lentoasemalta (METAR- ja TAF-raportit).

Käytössä olevat sääasemat on merkitty karttaan keltaisilla ja punaisilla pisteillä.

Aseta hiiri pisteen päälle nähdäksesi sääaseman nimen.

Klikkaa sitten nähdäksesi säähavainnot ja -ennusteet.

Kartan vaihtaminen: klikkaa mustalla rastilla varustettuja vihreitä pisteitä, niin voit zoomata sisään; viivalla varustettua vihreää pistettä, niin voit zoomata ulos tai vihreitä nuolia, niin pääset viereisille kartoille.


METAR-TAF: